Detall de PIREP

Printer-friendly versionPDF version

[2014/01/02 09:11:00]
Flight IATA:CT1004
Pilot Number:012
Company ICAO:CAT
Aircraft Type:B738/F
PAX:138
Departing Airport: LIEA
Destination Airport: LUKK
Alternate Airport:UKOO
Online: VATSIM
Route:MINKA UL5 SOMUN UN978 BUSES
Flight Level:F390
No Slew and time accel
No pause
Crash detect
Detect pilot in Cockpit between each 30 and 45 minutes
09:11 Zero fuel Weight: 119332 Lbs, Fuel Weight: 19561 Lbs
09:11 VATSIM:LIEA 020850Z 19011KT 9999 SCT013 BKN030 14/12 Q1017
09:11 VATSIM:LUKK 020900Z 17005KT 8000 BKN009 OVC014 03/03 Q1023 R08/290152 NOSIG
09:12 VOICE CATALONIAN / XMAS CHARTER
09:16 Parking Brakes off
09:20 Take-off
09:20 Take off Weight: 138238 Lbs
09:20 Wind: 188º @ 011 Knots Heading: 203º
09:20 POS N40º 37´ 46´´ E008º 17´ 21´´
09:21 Gear Up: 159 Knots
09:21 Flaps:3 at 159 Knots
09:21 Flaps:2 at 173 Knots
09:22 Flaps:1 at 179 Knots
09:22 Flaps:0 at 186 Knots
09:36 Wind:285º@031 Knots Heading: 065º Ground Speed: 493 Knots Altitude 30574 ft
09:51 Wind:293º@030 Knots Heading: 067º Ground Speed: 475 Knots Altitude 37168 ft
10:06 Wind:310º@027 Knots Heading: 055º Ground Speed: 458 Knots Altitude 37168 ft
10:16 TOC
10:16 Fuel Weight: 11820 Lb
10:21 Wind:312º@019 Knots Heading: 055º Ground Speed: 460 Knots Altitude 39166 ft
10:36 Wind:292º@018 Knots Heading: 063º Ground Speed: 459 Knots Altitude 39114 ft
10:51 Wind:271º@018 Knots Heading: 057º Ground Speed: 466 Knots Altitude 39120 ft
11:06 Wind:253º@018 Knots Heading: 072º Ground Speed: 462 Knots Altitude 39169 ft
11:16 TOD
11:16 Fuel Weight: 6864 Lb
11:21 Wind:257º@019 Knots Heading: 075º Ground Speed: 429 Knots Altitude 26617 ft
11:29 Flaps:1 at 266 Knots
11:35 Flaps:2 at 220 Knots
11:35 Flaps:3 at 209 Knots
11:36 Wind:172º@006 Knots Heading: 142º Ground Speed: 188 Knots Altitude 2460 ft
11:36 Flaps:4 at 165 Knots
11:37 Flaps:5 at 181 Knots
11:38 Flaps:6 at 159 Knots
11:39 Gear Down: 168 Knots
11:39 Flaps:7 at 161 Knots
11:42 TouchDown:Rate -212 ft/min Speed: 129 Knots
11:43 Flaps:5 at 47 Knots
11:43 Flaps:1 at 49 Knots
11:43 VATSIM:LUKK 021130Z 16006KT 3300 -DZ BR OVC001 04/04 Q1022 R08/290154 TEMPO 1200
11:43 Land
11:43 Wind:154º@006 Knots
11:43 Heading: 090º
11:43 Flight Duration: 02:23
11:43 Landing Weight: 124764 Lbs
11:43 POS N46º 55´ 41´´ E028º 55´ 40´´
11:46 Parking brakes on
11:46 Block to Block Duration: 02:30
11:46 Final Fuel: 5180 Lbls
11:46 Spent Fuel: 14380 Lbls
11:46 Flight Length: 999 NM
11:46 TOD Land Length: 133 NM

Exportar CSV

Powered by Drupal - Modified by Danger4k